Time;durP1;ratioP1;P1;durP2;ratioP2;P2;SDS_P1;SDS_P2;PMS_P1;PMS_P2;Temp;Humidity;BMP_temperature;BMP_pressure;BME280_temperature;BME280_humidity;BME280_pressure;Samples;Min_cycle;Max_cycle;Signal;HPM_P1;HPM_P2
2022/05/18 00:00:59;;;;;;;12.52;1.40;;;;;;;23.02;45.28;101308.75;5190275;28;20033;-80
2022/05/18 00:03:35;;;;;;;0.22;0.22;;;;;;;23.01;45.14;101307.06;5183843;28;20021;-81
2022/05/18 00:06:06;;;;;;;1.15;0.93;;;;;;;23.01;45.41;101312.41;5167374;28;20033;-80
2022/05/18 00:08:37;;;;;;;0.57;0.47;;;;;;;22.97;45.25;101322.47;5184837;28;20036;-80
2022/05/18 00:11:15;;;;;;;0.50;0.50;;;;;;;22.90;45.57;101322.03;5195004;28;20070;-81
2022/05/18 00:13:48;;;;;;;0.35;0.35;;;;;;;22.90;45.25;101327.38;5168027;28;20022;-80
2022/05/18 00:16:23;;;;;;;0.55;0.55;;;;;;;22.86;45.28;101325.88;5169960;28;20033;-80
2022/05/18 00:18:55;;;;;;;0.30;0.30;;;;;;;22.84;45.71;101333.19;5183090;28;20080;-81
2022/05/18 00:21:25;;;;;;;0.30;0.30;;;;;;;22.84;45.56;101333.19;5185060;28;20032;-81
2022/05/18 00:23:56;;;;;;;0.40;0.40;;;;;;;22.80;45.74;101328.97;5182251;28;20034;-81
2022/05/18 00:26:27;;;;;;;0.43;0.43;;;;;;;22.73;45.55;101330.38;5200755;28;20109;-81
2022/05/18 00:28:57;;;;;;;0.45;0.45;;;;;;;22.72;45.80;101339.34;5197631;28;20038;-82
2022/05/18 00:31:31;;;;;;;0.75;0.73;;;;;;;22.68;45.69;101333.38;5184749;28;20667;-81
2022/05/18 00:34:01;;;;;;;0.43;0.43;;;;;;;22.63;46.13;101341.69;5164359;28;20018;-81
2022/05/18 00:36:32;;;;;;;0.40;0.40;;;;;;;22.61;45.92;101334.75;5193943;28;20038;-82
2022/05/18 00:39:05;;;;;;;0.70;0.70;;;;;;;22.60;45.81;101343.72;5183241;28;20147;-81
2022/05/18 00:41:44;;;;;;;0.85;0.73;;;;;;;22.56;45.87;101337.75;5182064;28;20045;-81
2022/05/18 00:44:14;;;;;;;0.65;0.47;;;;;;;22.49;46.16;101341.78;5188099;28;20038;-81
2022/05/18 00:46:47;;;;;;;0.43;0.43;;;;;;;22.50;46.19;101340.84;5162022;28;20546;-81
2022/05/18 00:49:18;;;;;;;0.32;0.32;;;;;;;22.47;45.78;101347.25;5196693;28;20144;-81
2022/05/18 00:51:53;;;;;;;0.40;0.40;;;;;;;22.44;46.29;101346.56;5180290;28;20441;-79
2022/05/18 00:54:28;;;;;;;0.20;0.20;;;;;;;22.36;46.17;101343.53;5191261;28;20041;-82
2022/05/18 00:57:10;;;;;;;0.52;0.52;;;;;;;22.35;46.39;101340.00;5206276;28;20052;-81
2022/05/18 00:59:55;;;;;;;0.68;0.68;;;;;;;22.33;46.57;101350.81;5173138;28;20072;-81
2022/05/18 01:02:32;;;;;;;0.40;0.40;;;;;;;22.28;46.36;101352.06;5202291;28;20029;-82
2022/05/18 01:05:07;;;;;;;0.52;0.52;;;;;;;22.26;46.45;101354.88;5194406;28;20038;-80
2022/05/18 01:07:44;;;;;;;0.30;0.30;;;;;;;22.22;47.12;101352.50;5197002;28;20033;-81
2022/05/18 01:10:17;;;;;;;0.30;0.30;;;;;;;22.19;46.78;101364.22;5188256;28;20045;-81
2022/05/18 01:12:48;;;;;;;1.42;1.33;;;;;;;22.09;46.72;101358.63;5175420;28;20076;-81
2022/05/18 01:15:21;;;;;;;0.20;0.20;;;;;;;22.09;46.78;101358.63;5159763;28;20065;-81
2022/05/18 01:17:59;;;;;;;0.30;0.30;;;;;;;22.04;46.65;101359.88;5195875;28;20056;-81
2022/05/18 01:20:48;;;;;;;1.08;1.00;;;;;;;22.04;46.46;101360.75;5177921;28;20116;-81
2022/05/18 01:23:39;;;;;;;0.28;0.28;;;;;;;22.00;46.72;101362.78;5201125;28;20037;-81
2022/05/18 01:26:16;;;;;;;1.27;1.05;;;;;;;21.96;46.93;101353.25;5169260;28;20041;-80
2022/05/18 01:28:57;;;;;;;1.95;0.40;;;;;;;21.88;46.51;101354.72;5197748;28;20044;-80
2022/05/18 01:31:52;;;;;;;19.27;0.85;;;;;;;21.87;46.72;101356.50;5205332;28;20030;-81
2022/05/18 01:34:30;;;;;;;0.40;0.40;;;;;;;21.83;46.81;101352.34;5180456;28;20033;-80
2022/05/18 01:37:02;;;;;;;0.30;0.30;;;;;;;21.81;46.55;101348.91;5167268;28;20134;-80
2022/05/18 01:39:38;;;;;;;0.40;0.40;;;;;;;21.78;46.92;101360.66;5180471;28;20042;-80
2022/05/18 01:42:37;;;;;;;2.08;0.95;;;;;;;21.76;46.98;101359.88;5185248;28;20093;-80
2022/05/18 01:45:08;;;;;;;0.30;0.30;;;;;;;21.74;46.78;101359.09;5188691;28;20029;-81
2022/05/18 01:47:40;;;;;;;0.20;0.20;;;;;;;21.69;47.00;101361.22;5211290;28;20060;-82
2022/05/18 01:50:14;;;;;;;0.30;0.30;;;;;;;21.63;46.67;101362.47;5209568;28;20038;-81
2022/05/18 01:52:45;;;;;;;0.40;0.40;;;;;;;21.63;47.01;101356.28;5215174;28;20595;-79
2022/05/18 01:55:17;;;;;;;1.45;1.25;;;;;;;21.59;47.16;101363.63;5172062;28;20056;-80
2022/05/18 01:57:47;;;;;;;4.30;1.48;;;;;;;21.56;47.02;101366.47;5213331;28;20052;-80
2022/05/18 02:00:19;;;;;;;2.20;0.82;;;;;;;21.54;47.00;101366.56;5200230;28;20112;-80
2022/05/18 02:02:49;;;;;;;7.72;0.70;;;;;;;21.50;47.15;101361.53;5163785;28;20041;-80
2022/05/18 02:05:22;;;;;;;0.70;0.65;;;;;;;21.49;47.42;101362.47;5197219;28;20041;-80
2022/05/18 02:07:53;;;;;;;0.52;0.52;;;;;;;21.43;47.34;101362.88;5199848;28;20033;-80
2022/05/18 02:10:25;;;;;;;0.70;0.70;;;;;;;21.41;47.29;101362.94;5181808;28;20675;-80
2022/05/18 02:12:55;;;;;;;1.65;1.45;;;;;;;21.42;47.56;101363.81;5177381;28;20026;-80
2022/05/18 02:15:27;;;;;;;0.57;0.57;;;;;;;21.37;47.80;101364.09;5178350;28;20691;-79
2022/05/18 02:18:00;;;;;;;10.25;1.50;;;;;;;21.30;47.34;101366.28;5180369;28;20048;-80
2022/05/18 02:20:31;;;;;;;0.30;0.30;;;;;;;21.32;48.02;101367.06;5182482;28;20036;-80
2022/05/18 02:23:02;;;;;;;0.40;0.40;;;;;;;21.27;47.88;101361.16;5157148;28;20523;-79
2022/05/18 02:25:37;;;;;;;1.20;1.10;;;;;;;21.30;47.88;101365.44;5177345;28;20068;-80
2022/05/18 02:28:10;;;;;;;0.47;0.47;;;;;;;21.22;48.13;101361.44;5184067;28;20051;-80
2022/05/18 02:30:41;;;;;;;0.28;0.28;;;;;;;21.15;47.80;101359.22;5172912;28;20061;-80
2022/05/18 02:33:11;;;;;;;0.50;0.50;;;;;;;21.19;48.29;101366.97;5195838;28;20049;-81
2022/05/18 02:35:45;;;;;;;0.65;0.65;;;;;;;21.15;48.20;101362.78;5179731;28;20037;-81
2022/05/18 02:38:15;;;;;;;0.73;0.73;;;;;;;21.13;48.36;101363.78;5198675;28;20041;-81
2022/05/18 02:40:46;;;;;;;1.13;1.13;;;;;;;21.09;48.31;101359.63;5195818;28;20037;-81
2022/05/18 02:43:16;;;;;;;0.20;0.20;;;;;;;21.05;48.25;101359.78;5178641;28;20054;-81
2022/05/18 02:45:47;;;;;;;0.50;0.50;;;;;;;21.00;48.19;101359.22;5187692;28;20150;-80
2022/05/18 02:48:19;;;;;;;;;;;;;;;21.00;48.32;101353.91;5177441;28;20064;-81
2022/05/18 02:50:53;;;;;;;4.30;0.95;;;;;;;20.92;48.59;101361.50;5191811;28;19952;-81
2022/05/18 02:53:24;;;;;;;0.60;0.60;;;;;;;20.94;48.67;101354.28;5176217;28;20137;-80
2022/05/18 02:56:06;;;;;;;0.30;0.30;;;;;;;20.89;49.09;101359.88;5194496;28;20128;-81
2022/05/18 02:58:44;;;;;;;0.52;0.52;;;;;;;20.89;48.75;101356.34;5193355;28;20052;-80
2022/05/18 03:01:25;;;;;;;0.77;0.77;;;;;;;20.81;48.83;101362.16;5191248;28;20037;-80
2022/05/18 03:03:56;;;;;;;2.75;1.67;;;;;;;20.80;48.81;101362.22;5174246;28;20472;-80
2022/05/18 03:06:26;;;;;;;6.75;1.08;;;;;;;20.74;48.82;101358.16;5201716;28;20040;-81
2022/05/18 03:08:57;;;;;;;0.75;0.75;;;;;;;20.75;49.74;101366.06;5206470;28;20438;-80
2022/05/18 03:11:27;;;;;;;0.52;0.52;;;;;;;20.69;49.36;101365.53;5196699;28;20124;-80
2022/05/18 03:13:58;;;;;;;0.80;0.70;;;;;;;20.68;49.33;101366.47;5177458;28;20524;-80
2022/05/18 03:16:30;;;;;;;0.32;0.32;;;;;;;20.62;49.24;101373.00;5184025;28;20091;-80
2022/05/18 03:19:00;;;;;;;0.50;0.50;;;;;;;20.62;49.56;101365.00;5180592;28;20037;-80
2022/05/18 03:24:20;;;;;;;1.15;0.95;;;;;;;20.57;49.68;101375.09;5204228;28;20533;-81
2022/05/18 03:26:50;;;;;;;0.40;0.40;;;;;;;20.53;49.49;101370.91;5182667;28;20041;-81
2022/05/18 03:29:21;;;;;;;0.77;0.50;;;;;;;20.50;49.39;101371.09;5167828;28;20692;-81
2022/05/18 03:31:52;;;;;;;1.20;1.00;;;;;;;20.49;49.51;101374.69;5185694;28;20038;-80
2022/05/18 03:34:23;;;;;;;1.15;0.73;;;;;;;20.48;49.59;101386.31;5195095;28;20049;-80
2022/05/18 03:36:56;;;;;;;1.40;0.95;;;;;;;20.47;49.69;101384.59;5172131;28;20143;-80
2022/05/18 03:39:27;;;;;;;1.40;1.25;;;;;;;20.40;49.85;101392.09;5198964;28;20029;-80
2022/05/18 03:41:57;;;;;;;0.57;0.50;;;;;;;20.38;49.97;101389.50;5189550;28;20039;-80
2022/05/18 03:44:28;;;;;;;0.57;0.57;;;;;;;20.35;49.71;101389.69;5200280;28;20041;-80
2022/05/18 03:46:58;;;;;;;0.45;0.45;;;;;;;20.34;50.17;101389.75;5190545;28;20015;-81
2022/05/18 03:49:29;;;;;;;0.80;0.70;;;;;;;20.34;50.22;101397.75;5209688;28;20095;-81
2022/05/18 03:52:00;;;;;;;5.03;1.75;;;;;;;20.31;50.46;101398.81;5193787;28;20836;-81
2022/05/18 03:54:33;;;;;;;0.50;0.50;;;;;;;20.27;50.01;101386.63;5171051;28;20042;-81
2022/05/18 03:57:06;;;;;;;0.60;0.60;;;;;;;20.26;50.09;101400.88;5183127;28;20033;-80
2022/05/18 03:59:37;;;;;;;;;;;;;;;20.27;50.40;101402.59;5196504;28;20065;-81
2022/05/18 04:02:10;;;;;;;;;;;;;;;20.21;50.21;101402.94;5196210;28;19916;-81
2022/05/18 04:04:42;;;;;;;2.55;1.23;;;;;;;20.19;50.27;101399.50;5185777;28;19913;-80
2022/05/18 04:07:13;;;;;;;0.40;0.40;;;;;;;20.19;50.37;101402.19;5189064;28;20084;-80
2022/05/18 04:09:47;;;;;;;1.30;1.20;;;;;;;20.17;50.36;101406.72;5186395;28;20061;-80
2022/05/18 04:12:17;;;;;;;0.73;0.73;;;;;;;20.12;50.30;101409.66;5197844;28;20018;-80
2022/05/18 04:14:51;;;;;;;0.70;0.57;;;;;;;20.10;50.44;101408.88;5202034;28;20522;-81
2022/05/18 04:17:22;;;;;;;0.30;0.30;;;;;;;20.09;50.25;101410.69;5187159;28;20021;-81
2022/05/18 04:19:53;;;;;;;1.05;1.05;;;;;;;20.13;50.79;101414.03;5204098;28;20026;-80
2022/05/18 04:22:24;;;;;;;0.30;0.30;;;;;;;20.11;50.79;101424.78;5199732;28;20064;-80
2022/05/18 04:24:54;;;;;;;2.05;1.10;;;;;;;20.08;50.78;101422.28;5177101;28;20563;-80
2022/05/18 04:27:25;;;;;;;0.45;0.45;;;;;;;20.08;50.63;101419.63;5180888;28;20033;-80
2022/05/18 04:29:57;;;;;;;1.40;1.02;;;;;;;20.04;50.63;101422.53;5183581;28;20041;-80
2022/05/18 04:32:28;;;;;;;0.82;0.82;;;;;;;20.05;51.14;101418.94;5182005;28;20451;-81
2022/05/18 04:34:58;;;;;;;0.77;0.77;;;;;;;20.06;51.52;101420.66;5211560;28;20057;-80
2022/05/18 04:37:29;;;;;;;0.68;0.68;;;;;;;20.01;50.81;101425.38;5171411;28;20037;-80
2022/05/18 04:40:00;;;;;;;0.65;0.65;;;;;;;20.02;51.06;101422.63;5203566;28;20049;-80
2022/05/18 04:42:30;;;;;;;0.98;0.90;;;;;;;20.01;51.06;101428.03;5198987;28;20018;-79
2022/05/18 04:45:02;;;;;;;0.30;0.30;;;;;;;19.97;50.98;101428.22;5179969;28;20071;-79
2022/05/18 04:47:33;;;;;;;0.47;0.47;;;;;;;19.99;51.10;101430.78;5180820;28;20416;-80
2022/05/18 04:50:06;;;;;;;2.20;1.52;;;;;;;19.98;51.37;101434.41;5180552;28;20596;-80
2022/05/18 04:52:37;;;;;;;1.27;0.90;;;;;;;19.97;51.23;101433.53;5191872;28;20022;-80
2022/05/18 04:55:08;;;;;;;1.98;1.23;;;;;;;19.99;51.49;101436.13;5166818;28;20041;-81
2022/05/18 04:57:39;;;;;;;0.93;0.93;;;;;;;19.97;51.45;101433.53;5180776;28;20030;-81
2022/05/18 05:00:12;;;;;;;0.30;0.30;;;;;;;20.00;51.69;101437.84;5199501;28;20049;-80
2022/05/18 05:02:43;;;;;;;0.40;0.40;;;;;;;20.00;51.63;101452.97;5176723;28;20048;-80
2022/05/18 05:05:14;;;;;;;0.30;0.30;;;;;;;19.99;51.84;101457.44;5171067;28;20029;-80
2022/05/18 05:07:44;;;;;;;8.15;1.42;;;;;;;19.97;51.73;101459.31;5182987;28;20025;-80
2022/05/18 05:10:15;;;;;;;0.77;0.77;;;;;;;19.97;51.81;101462.84;5181151;28;20025;-80
2022/05/18 05:12:45;;;;;;;0.63;0.63;;;;;;;20.01;52.08;101470.66;5173812;28;20587;-80
2022/05/18 05:15:16;;;;;;;0.57;0.57;;;;;;;20.01;51.81;101470.66;5188731;28;20030;-80
2022/05/18 05:17:47;;;;;;;0.68;0.68;;;;;;;20.04;52.23;101465.16;5175283;28;20057;-80
2022/05/18 05:20:18;;;;;;;0.80;0.65;;;;;;;20.07;52.20;101475.66;5211747;28;20041;-80
2022/05/18 05:22:49;;;;;;;0.73;0.73;;;;;;;20.07;52.29;101459.69;5186664;28;20741;-79
2022/05/18 05:25:20;;;;;;;0.63;0.63;;;;;;;20.08;52.22;101467.56;5198238;28;20049;-80
2022/05/18 05:27:51;;;;;;;0.60;0.55;;;;;;;20.08;52.09;101464.06;5190553;28;20095;-80
2022/05/18 05:30:21;;;;;;;2.17;1.38;;;;;;;20.12;52.36;101463.78;5195103;28;20049;-81
2022/05/18 05:32:52;;;;;;;1.95;1.38;;;;;;;20.12;52.50;101468.25;5196680;28;20018;-80
2022/05/18 05:35:22;;;;;;;0.90;0.82;;;;;;;20.11;52.39;101471.88;5181957;28;20459;-80
2022/05/18 05:37:53;;;;;;;0.55;0.55;;;;;;;20.15;52.53;101462.78;5182300;28;20681;-80
2022/05/18 05:40:24;;;;;;;0.52;0.52;;;;;;;20.17;52.62;101460.00;5153477;28;20084;-80
2022/05/18 05:42:54;;;;;;;1.02;0.60;;;;;;;20.15;52.32;101475.22;5185131;28;20037;-81
2022/05/18 05:45:24;;;;;;;0.82;0.82;;;;;;;20.17;52.66;101476.84;5175128;28;20045;-81
2022/05/18 05:47:58;;;;;;;0.80;0.77;;;;;;;20.18;52.48;101472.41;5173439;28;20005;-82
2022/05/18 05:50:30;;;;;;;1.80;1.58;;;;;;;20.20;52.67;101470.50;5216300;28;20042;-80
2022/05/18 05:53:01;;;;;;;0.80;0.80;;;;;;;20.19;52.73;101466.13;5181483;28;20554;-83
2022/05/18 05:55:32;;;;;;;0.38;0.35;;;;;;;20.23;52.57;101465.88;5188067;28;20038;-82
2022/05/18 05:58:02;;;;;;;2.00;1.02;;;;;;;20.23;53.33;101467.66;5196521;28;20060;-81
2022/05/18 06:00:33;;;;;;;0.55;0.50;;;;;;;20.29;52.60;101475.28;5182696;28;20212;-81
2022/05/18 06:03:04;;;;;;;0.30;0.30;;;;;;;20.33;52.51;101473.34;5191935;28;20063;-82
2022/05/18 06:05:34;;;;;;;1.00;1.00;;;;;;;20.36;52.59;101473.16;5192422;28;20030;-83
2022/05/18 06:08:05;;;;;;;0.52;0.52;;;;;;;20.37;52.55;101470.41;5198570;28;20030;-82
2022/05/18 06:10:36;;;;;;;10.30;2.25;;;;;;;20.38;52.53;101480.09;5188000;28;20052;-80
2022/05/18 06:13:10;;;;;;;4.95;0.65;;;;;;;20.46;52.42;101477.03;5182816;28;20397;-81
2022/05/18 06:15:41;;;;;;;1.27;0.63;;;;;;;20.48;52.39;101472.47;5178043;28;20081;-82
2022/05/18 06:18:12;;;;;;;0.40;0.40;;;;;;;20.54;52.35;101477.44;5195081;28;20030;-79
2022/05/18 06:20:44;;;;;;;0.30;0.30;;;;;;;20.54;52.43;101476.56;5183355;28;20038;-81
2022/05/18 06:23:16;;;;;;;1.02;0.95;;;;;;;20.57;52.27;101473.75;5196466;28;20030;-82
2022/05/18 06:25:46;;;;;;;0.32;0.32;;;;;;;20.57;52.42;101479.94;5192489;28;20033;-81
2022/05/18 06:28:17;;;;;;;0.60;0.60;;;;;;;20.63;53.20;101485.88;5175652;28;20510;-80
2022/05/18 06:30:48;;;;;;;0.73;0.70;;;;;;;20.65;52.18;101484.81;5190045;28;20073;-80
2022/05/18 06:33:18;;;;;;;0.20;0.20;;;;;;;20.75;52.17;101498.50;5179978;28;20061;-81
2022/05/18 06:35:51;;;;;;;0.43;0.43;;;;;;;20.77;51.74;101490.44;5173788;28;20401;-81
2022/05/18 06:38:23;;;;;;;;;;;;;;;20.74;52.18;101497.66;5205143;28;20099;-81
2022/05/18 06:43:42;;;;;;;0.60;0.60;;;;;;;20.82;52.68;101512.34;5182523;28;20026;-81
2022/05/18 06:46:13;;;;;;;0.80;0.57;;;;;;;20.79;52.72;101504.53;5190366;28;20072;-81
2022/05/18 06:48:44;;;;;;;0.30;0.30;;;;;;;20.84;52.00;101507.78;5173484;28;20026;-81
2022/05/18 06:51:17;;;;;;;1.08;0.43;;;;;;;20.84;52.89;101502.47;5186454;28;20048;-82
2022/05/18 06:53:51;;;;;;;1.00;0.63;;;;;;;20.87;52.05;101507.59;5198586;28;20029;-81
2022/05/18 06:56:26;;;;;;;0.30;0.30;;;;;;;20.97;52.15;101514.13;5169687;28;20029;-81
2022/05/18 06:58:56;;;;;;;0.90;0.90;;;;;;;21.03;52.06;101510.25;5179264;28;20041;-81
2022/05/18 07:01:28;;;;;;;0.40;0.40;;;;;;;21.09;51.84;101504.53;5201716;28;20528;-81
2022/05/18 07:03:59;;;;;;;0.20;0.20;;;;;;;21.15;52.08;101492.66;5203588;28;20759;-81
2022/05/18 07:06:32;;;;;;;0.30;0.30;;;;;;;21.22;51.91;101502.00;5192380;28;20033;-82
2022/05/18 07:09:07;;;;;;;0.28;0.28;;;;;;;21.21;52.23;101500.28;5205594;28;20113;-81
2022/05/18 07:11:37;;;;;;;0.52;0.52;;;;;;;21.27;52.40;101491.94;5207704;28;20025;-83
2022/05/18 07:14:08;;;;;;;0.50;0.50;;;;;;;21.33;52.12;101496.88;5192832;28;20527;-81
2022/05/18 07:16:40;;;;;;;0.50;0.50;;;;;;;21.38;52.17;101492.13;5183631;28;20026;-81
2022/05/18 07:19:12;;;;;;;0.32;0.32;;;;;;;21.46;51.88;101498.78;5178479;28;20033;-81
2022/05/18 07:21:43;;;;;;;0.30;0.30;;;;;;;21.54;52.15;101492.06;5193600;28;20034;-82
2022/05/18 07:24:14;;;;;;;0.52;0.52;;;;;;;21.54;52.18;101496.50;5204042;28;20657;-81
2022/05/18 07:26:45;;;;;;;0.60;0.60;;;;;;;21.58;53.60;101490.09;5197036;28;20030;-81
2022/05/18 07:29:16;;;;;;;0.40;0.40;;;;;;;21.72;53.15;101491.03;5182715;28;20129;-81
2022/05/18 07:34:38;;;;;;;0.65;0.47;;;;;;;21.64;54.36;101491.53;5218804;28;20025;-83
2022/05/18 07:37:09;;;;;;;4.03;0.40;;;;;;;21.69;53.10;101495.59;5196032;28;20014;-82
2022/05/18 07:39:41;;;;;;;1.45;0.82;;;;;;;21.74;53.56;101491.81;5189753;28;20076;-82
2022/05/18 07:42:14;;;;;;;0.30;0.30;;;;;;;21.80;52.91;101491.41;5178604;28;20026;-83
2022/05/18 07:44:47;;;;;;;0.30;0.30;;;;;;;21.85;53.95;101482.16;5198585;28;20117;-82
2022/05/18 07:47:20;;;;;;;0.40;0.40;;;;;;;21.92;54.03;101490.66;5183369;28;20026;-82
2022/05/18 07:49:52;;;;;;;0.50;0.50;;;;;;;21.87;53.98;101495.41;5183878;28;20052;-82
2022/05/18 07:52:22;;;;;;;1.65;0.75;;;;;;;21.94;53.48;101499.41;5169819;28;20105;-82
2022/05/18 07:54:53;;;;;;;7.22;0.68;;;;;;;21.90;53.17;101497.91;5197335;28;20042;-81
2022/05/18 07:57:23;;;;;;;0.82;0.82;;;;;;;22.01;52.03;101487.41;5197630;28;20506;-83
2022/05/18 07:59:58;;;;;;;0.40;0.40;;;;;;;22.00;52.74;101487.47;5180404;28;20496;-81
2022/05/18 08:02:32;;;;;;;5.53;1.13;;;;;;;22.04;52.94;101488.16;5176798;28;20029;-81
2022/05/18 08:05:04;;;;;;;0.32;0.32;;;;;;;22.07;52.23;101493.31;5166829;28;20188;-82
2022/05/18 08:07:34;;;;;;;4.70;1.30;;;;;;;22.09;52.15;101496.75;5195690;28;20108;-83
2022/05/18 08:15:45;;;;;;;0.40;0.40;;;;;;;22.18;50.94;101498.84;5213777;28;20520;-83
2022/05/18 08:18:17;;;;;;;4.03;2.30;;;;;;;22.27;50.24;101500.03;5186496;28;20030;-82
2022/05/18 08:20:48;;;;;;;1.13;0.75;;;;;;;22.22;51.09;101497.66;5184524;28;20547;-81
2022/05/18 08:23:20;;;;;;;0.60;0.60;;;;;;;22.26;50.52;101501.88;5183876;28;20136;-81
2022/05/18 08:25:50;;;;;;;0.32;0.32;;;;;;;22.31;50.94;101501.59;5214103;28;20068;-81
2022/05/18 08:28:21;;;;;;;0.75;0.75;;;;;;;22.36;51.15;101499.44;5179949;28;20030;-82
2022/05/18 08:30:54;;;;;;;0.20;0.20;;;;;;;22.40;51.87;101497.47;5173471;28;20042;-80
2022/05/18 08:33:25;;;;;;;0.22;0.22;;;;;;;22.49;51.76;101499.56;5198893;28;20489;-80
2022/05/18 08:35:56;;;;;;;0.20;0.20;;;;;;;22.49;51.24;101494.19;5181768;28;20432;-80
2022/05/18 08:38:27;;;;;;;0.65;0.50;;;;;;;22.52;51.10;101499.31;5188851;28;20038;-80
2022/05/18 08:41:10;;;;;;;0.25;0.25;;;;;;;22.60;50.82;101498.84;5183632;28;20564;-82
2022/05/18 08:43:45;;;;;;;0.50;0.50;;;;;;;22.62;50.69;101497.78;5205670;28;20049;-81
2022/05/18 08:46:18;;;;;;;0.40;0.40;;;;;;;22.72;50.58;101494.50;5200996;28;20707;-82
2022/05/18 08:49:27;;;;;;;0.40;0.40;;;;;;;22.78;50.72;101499.44;5197810;28;20037;-82
2022/05/18 08:52:07;;;;;;;0.73;0.68;;;;;;;22.87;51.23;101490.78;5129284;28;20050;-81
2022/05/18 08:54:37;;;;;;;0.30;0.30;;;;;;;22.87;51.00;101488.13;5122299;28;20453;-83
2022/05/18 08:57:18;;;;;;;0.28;0.28;;;;;;;22.92;50.44;101496.72;5161662;28;20041;-83
2022/05/18 08:59:54;;;;;;;0.30;0.30;;;;;;;22.91;50.35;101494.13;5198826;28;20049;-81
2022/05/18 09:02:29;;;;;;;0.30;0.30;;;;;;;22.94;49.80;101494.75;5182495;28;20033;-81
2022/05/18 09:05:05;;;;;;;0.40;0.40;;;;;;;22.97;50.46;101495.53;5179372;28;20421;-81
2022/05/18 09:07:45;;;;;;;0.20;0.20;;;;;;;23.15;50.10;101496.09;5191361;28;20025;-81
2022/05/18 09:10:53;;;;;;;0.88;0.73;;;;;;;23.15;49.92;101496.97;5193073;28;20071;-81
2022/05/18 09:13:24;;;;;;;2.75;1.20;;;;;;;23.34;49.68;101495.75;5178754;28;20046;-82
2022/05/18 09:16:18;;;;;;;0.55;0.55;;;;;;;23.33;49.79;101491.34;5198035;28;20037;-82
2022/05/18 09:18:51;;;;;;;1.75;0.82;;;;;;;23.31;49.25;101494.09;5179619;28;20411;-81
2022/05/18 09:21:49;;;;;;;0.47;0.47;;;;;;;23.35;49.60;101490.28;5182921;28;20037;-80
2022/05/18 09:24:28;;;;;;;0.30;0.30;;;;;;;23.39;49.61;101490.91;5171669;28;20520;-82
2022/05/18 09:27:37;;;;;;;0.38;0.38;;;;;;;23.49;49.86;101489.31;5158611;28;20064;-81
2022/05/18 09:30:30;;;;;;;0.22;0.22;;;;;;;23.45;49.18;101492.31;5180084;28;20030;-82
2022/05/18 09:33:16;;;;;;;0.25;0.25;;;;;;;23.52;49.40;101489.09;5187288;28;20034;-83
2022/05/18 09:35:57;;;;;;;6.00;1.70;;;;;;;23.66;48.43;101489.94;5194786;28;20365;-82
2022/05/18 09:38:47;;;;;;;0.20;0.20;;;;;;;23.62;48.90;101488.44;5188033;28;20179;-82
2022/05/18 09:41:22;;;;;;;1.95;0.60;;;;;;;23.73;48.64;101484.03;5180927;28;20133;-81
2022/05/18 09:43:57;;;;;;;0.30;0.30;;;;;;;23.70;47.99;101492.31;5175618;28;20108;-80
2022/05/18 09:46:30;;;;;;;0.60;0.60;;;;;;;23.76;48.44;101480.28;5189809;28;20072;-80
2022/05/18 09:49:22;;;;;;;0.88;0.75;;;;;;;23.86;48.36;101489.38;5186896;28;20128;-80
2022/05/18 09:51:56;;;;;;;1.00;0.90;;;;;;;23.87;48.20;101484.88;5181590;28;20029;-82
2022/05/18 09:54:29;;;;;;;0.73;0.73;;;;;;;23.88;47.65;101482.09;5184563;28;20080;-81
2022/05/18 09:57:04;;;;;;;0.45;0.45;;;;;;;23.93;48.10;101478.22;5179334;28;20162;-81
2022/05/18 09:59:40;;;;;;;0.30;0.30;;;;;;;23.99;48.14;101477.81;5166049;28;20041;-83
2022/05/18 10:08:04;;;;;;;1.48;1.05;;;;;;;24.25;47.85;101477.75;5193811;28;20121;-79
2022/05/18 10:10:36;;;;;;;0.30;0.30;;;;;;;24.24;47.61;101468.00;5196356;28;20033;-81
2022/05/18 10:13:13;;;;;;;0.30;0.30;;;;;;;24.30;47.96;101473.75;5184803;28;20124;-80
2022/05/18 10:15:46;;;;;;;0.60;0.60;;;;;;;24.40;48.21;101463.22;5190417;28;20033;-80
2022/05/18 10:18:25;;;;;;;0.77;0.77;;;;;;;24.54;47.54;101459.50;5193637;28;20037;-81
2022/05/18 10:21:26;;;;;;;0.30;0.30;;;;;;;24.75;47.96;101457.03;5179995;28;20121;-79
2022/05/18 10:24:08;;;;;;;0.50;0.50;;;;;;;24.64;48.20;101456.97;5192118;28;20041;-79
2022/05/18 10:26:41;;;;;;;0.52;0.52;;;;;;;24.72;48.75;101451.03;5199129;28;20045;-79
2022/05/18 10:29:11;;;;;;;0.60;0.60;;;;;;;24.91;47.18;101454.06;5192481;28;20041;-82
2022/05/18 10:31:59;;;;;;;2.00;1.10;;;;;;;24.89;47.37;101453.31;5223239;28;20095;-81
2022/05/18 10:34:40;;;;;;;0.50;0.50;;;;;;;24.86;46.65;101444.63;5185711;28;20429;-81
2022/05/18 10:37:13;;;;;;;1.30;1.20;;;;;;;24.95;47.15;101443.94;5207156;28;20668;-81
2022/05/18 10:39:47;;;;;;;0.50;0.50;;;;;;;25.00;48.10;101444.44;5185728;28;20236;-81
2022/05/18 10:42:25;;;;;;;0.47;0.47;;;;;;;25.11;47.22;101440.94;5189727;28;20159;-80
2022/05/18 10:44:59;;;;;;;3.05;1.23;;;;;;;25.29;45.40;101438.63;5185019;28;20072;-81
2022/05/18 10:47:36;;;;;;;0.60;0.60;;;;;;;25.34;45.28;101441.81;5179708;28;20583;-81
2022/05/18 10:50:25;;;;;;;0.30;0.30;;;;;;;25.34;45.71;101440.97;5203913;28;20076;-80
2022/05/18 10:53:16;;;;;;;0.20;0.20;;;;;;;25.44;46.37;101440.13;5190492;28;20056;-82
2022/05/18 10:56:10;;;;;;;0.38;0.38;;;;;;;25.47;45.96;101438.19;5198183;28;20420;-83
2022/05/18 10:58:52;;;;;;;0.50;0.50;;;;;;;25.61;44.49;101427.19;5182205;28;20049;-82
2022/05/18 11:01:32;;;;;;;2.70;1.20;;;;;;;25.70;45.01;101429.16;5208788;28;20104;-81
2022/05/18 11:04:27;;;;;;;0.30;0.30;;;;;;;25.72;44.69;101427.19;5196162;28;20032;-82
2022/05/18 11:06:58;;;;;;;0.38;0.38;;;;;;;25.89;44.32;101424.97;5210438;28;20078;-81
2022/05/18 11:09:31;;;;;;;0.40;0.40;;;;;;;26.06;43.39;101421.75;5192791;28;20045;-82
2022/05/18 11:12:24;;;;;;;1.98;1.10;;;;;;;26.29;42.92;101420.84;5167812;28;20173;-82
2022/05/18 11:15:06;;;;;;;0.85;0.85;;;;;;;26.15;42.69;101413.94;5186705;28;20053;-81
2022/05/18 11:18:04;;;;;;;0.50;0.50;;;;;;;26.16;43.75;101415.63;5189927;28;20630;-81
2022/05/18 11:21:04;;;;;;;0.35;0.35;;;;;;;26.20;43.02;101417.94;5201470;28;20036;-81
2022/05/18 11:24:21;;;;;;;0.20;0.20;;;;;;;26.27;42.58;101417.47;5201865;28;20080;-81
2022/05/18 11:27:18;;;;;;;0.93;0.93;;;;;;;26.39;41.92;101411.03;5153459;28;20095;-82
2022/05/18 11:30:07;;;;;;;1.20;1.10;;;;;;;26.51;42.21;101411.84;5199246;28;20045;-78
2022/05/18 11:33:11;;;;;;;3.20;0.93;;;;;;;26.52;42.58;101410.88;5175173;28;20559;-80
2022/05/18 11:36:09;;;;;;;0.43;0.43;;;;;;;26.63;41.80;101407.25;5174744;28;20045;-79
2022/05/18 11:38:49;;;;;;;1.70;0.93;;;;;;;26.77;42.44;101407.00;5204502;28;20043;-79
2022/05/18 11:41:32;;;;;;;0.28;0.28;;;;;;;26.80;41.89;101408.56;5184187;28;20045;-80
2022/05/18 11:44:10;;;;;;;0.30;0.30;;;;;;;26.84;42.10;101399.22;5181363;28;20076;-81
2022/05/18 11:46:56;;;;;;;0.30;0.30;;;;;;;26.95;41.37;101399.16;5176100;28;20060;-80
2022/05/18 11:49:51;;;;;;;0.25;0.25;;;;;;;26.99;41.39;101397.91;5185355;28;20045;-81
2022/05/18 11:52:36;;;;;;;0.30;0.30;;;;;;;27.07;39.67;101396.38;5210258;28;20359;-80
2022/05/18 11:55:20;;;;;;;0.50;0.50;;;;;;;27.18;41.12;101388.22;5157454;28;20056;-79
2022/05/18 11:58:02;;;;;;;0.45;0.45;;;;;;;27.22;40.57;101386.97;5165021;28;20067;-80
2022/05/18 12:03:41;;;;;;;0.35;0.35;;;;;;;27.29;40.42;101388.16;5182061;28;20493;-80
2022/05/18 12:06:34;;;;;;;1.08;0.95;;;;;;;27.47;40.21;101391.06;5196694;28;20148;-81
2022/05/18 12:09:22;;;;;;;1.25;0.95;;;;;;;27.28;39.92;101386.44;5177477;28;20132;-80
2022/05/18 12:12:19;;;;;;;0.40;0.40;;;;;;;27.23;40.88;101383.28;5195376;28;20553;-80
2022/05/18 12:15:28;;;;;;;0.52;0.52;;;;;;;27.38;40.91;101385.63;5185546;28;20679;-80
2022/05/18 12:18:04;;;;;;;1.27;0.50;;;;;;;27.34;40.93;101390.44;5181175;28;20038;-81
2022/05/18 12:21:15;;;;;;;0.30;0.30;;;;;;;27.41;40.67;101379.94;5202108;28;20037;-80
2022/05/18 12:23:52;;;;;;;0.30;0.30;;;;;;;27.41;41.18;101379.94;5112754;28;20037;-82
2022/05/18 12:26:23;;;;;;;0.68;0.68;;;;;;;27.46;40.57;101378.59;5191898;28;20030;-83
2022/05/18 12:28:54;;;;;;;0.30;0.30;;;;;;;27.47;40.95;101372.22;5181402;28;20059;-79